createdAt,value
2022-10-04T00:00:37.363Z,94.13
2022-10-04T00:03:13.226Z,94.11
2022-10-04T00:05:42.558Z,94.38
2022-10-04T00:08:39.351Z,94.34
2022-10-04T00:11:29.904Z,94.07
2022-10-04T00:14:01.887Z,94.46
2022-10-04T00:16:42.208Z,94.86
2022-10-04T00:19:16.721Z,94.57
2022-10-04T00:21:57.500Z,93.89
2022-10-04T00:24:30.973Z,93.95
2022-10-04T00:27:25.380Z,94.50
2022-10-04T00:30:03.299Z,94.33
2022-10-04T00:32:41.064Z,93.98
2022-10-04T00:35:28.275Z,94.61
2022-10-04T00:38:12.796Z,94.74
2022-10-04T00:40:54.900Z,94.47
2022-10-04T00:43:29.404Z,94.45
2022-10-04T00:46:12.140Z,94.08
2022-10-04T00:49:00.652Z,94.07
2022-10-04T00:51:49.526Z,93.95
2022-10-04T00:54:24.724Z,94.19
2022-10-04T00:56:57.135Z,94.44
2022-10-04T00:59:47.027Z,94.01
2022-10-04T01:02:16.287Z,94.06
2022-10-04T01:05:01.036Z,94.38
2022-10-04T01:07:34.123Z,93.92
2022-10-04T01:10:11.496Z,94.69
2022-10-04T01:12:49.162Z,94.66
2022-10-04T01:15:39.406Z,94.54
2022-10-04T01:18:20.214Z,94.17
2022-10-04T01:21:22.747Z,94.50
2022-10-04T01:24:16.196Z,94.40
2022-10-04T01:26:46.394Z,93.84
2022-10-04T01:29:33.447Z,94.47
2022-10-04T01:32:02.612Z,94.40
2022-10-04T01:34:31.858Z,94.30
2022-10-04T01:37:01.775Z,94.23
2022-10-04T01:39:30.622Z,94.18
2022-10-04T01:42:30.574Z,94.46
2022-10-04T01:45:11.607Z,94.50
2022-10-04T01:47:54.722Z,94.63
2022-10-04T01:50:34.139Z,94.44
2022-10-04T01:53:32.947Z,94.46
2022-10-04T01:56:26.043Z,93.83
2022-10-04T01:59:00.732Z,94.24
2022-10-04T02:01:42.613Z,93.70
2022-10-04T02:04:28.131Z,93.91
2022-10-04T02:07:00.011Z,93.50
2022-10-04T02:09:39.521Z,93.75
2022-10-04T02:12:08.481Z,93.65
2022-10-04T02:14:40.358Z,93.49
2022-10-04T02:17:12.556Z,93.73
2022-10-04T02:19:43.145Z,93.71
2022-10-04T02:22:12.728Z,93.84
2022-10-04T02:24:47.980Z,94.07
2022-10-04T02:27:17.560Z,94.04
2022-10-04T02:29:46.526Z,93.92
2022-10-04T02:32:34.183Z,94.00
2022-10-04T02:35:04.679Z,94.06
2022-10-04T02:37:34.661Z,93.91
2022-10-04T02:40:16.791Z,94.37
2022-10-04T02:43:01.013Z,93.82
2022-10-04T02:45:48.343Z,94.43
2022-10-04T02:48:32.395Z,93.82
2022-10-04T02:51:12.795Z,93.64
2022-10-04T02:53:49.862Z,93.87
2022-10-04T02:56:19.931Z,93.91
2022-10-04T02:58:49.240Z,93.46
2022-10-04T03:01:28.162Z,94.06
2022-10-04T03:03:58.994Z,94.34
2022-10-04T03:06:32.993Z,94.00
2022-10-04T03:09:04.290Z,94.01
2022-10-04T03:11:41.038Z,93.82
2022-10-04T03:14:21.674Z,93.51
2022-10-04T03:16:57.885Z,93.42
2022-10-04T03:19:28.462Z,93.83
2022-10-04T03:22:01.628Z,93.50
2022-10-04T03:24:37.555Z,93.21
2022-10-04T03:27:15.064Z,93.48
2022-10-04T03:29:44.403Z,93.55
2022-10-04T03:32:19.535Z,93.10
2022-10-04T03:35:29.226Z,93.26
2022-10-04T03:37:59.840Z,93.09
2022-10-04T03:40:31.358Z,92.53
2022-10-04T03:43:03.477Z,92.87
2022-10-04T03:45:35.743Z,92.72
2022-10-04T03:48:10.848Z,92.71
2022-10-04T03:50:48.137Z,92.31
2022-10-04T03:53:25.316Z,92.77
2022-10-04T03:55:54.760Z,92.85
2022-10-04T03:58:26.197Z,92.92
2022-10-04T04:01:11.682Z,92.68
2022-10-04T04:04:08.975Z,93.06
2022-10-04T04:06:53.048Z,93.03
2022-10-04T04:09:30.196Z,92.70
2022-10-04T04:12:16.954Z,93.07
2022-10-04T04:14:50.307Z,92.89
2022-10-04T04:17:28.238Z,93.29
2022-10-04T04:20:07.481Z,92.93
2022-10-04T04:22:37.902Z,92.90
2022-10-04T04:25:14.615Z,92.73
2022-10-04T04:27:47.303Z,92.88
2022-10-04T04:30:18.634Z,92.73
2022-10-04T04:32:52.198Z,92.88
2022-10-04T04:35:30.905Z,93.27
2022-10-04T04:38:14.991Z,93.20
2022-10-04T04:40:44.457Z,93.01
2022-10-04T04:43:22.836Z,92.74
2022-10-04T04:46:14.931Z,92.88
2022-10-04T04:48:45.682Z,93.32
2022-10-04T04:51:22.080Z,93.09
2022-10-04T04:53:53.467Z,92.39
2022-10-04T04:56:27.307Z,92.77
2022-10-04T04:59:00.467Z,92.40
2022-10-04T05:01:38.036Z,92.96
2022-10-04T05:04:16.634Z,93.01
2022-10-04T05:06:47.829Z,92.76
2022-10-04T05:09:42.828Z,92.92
2022-10-04T05:12:18.651Z,92.93
2022-10-04T05:14:52.698Z,92.70
2022-10-04T05:17:26.029Z,93.13
2022-10-04T05:19:59.994Z,92.53
2022-10-04T05:22:31.455Z,92.67
2022-10-04T05:25:08.132Z,92.60
2022-10-04T05:27:38.510Z,92.93
2022-10-04T05:30:36.847Z,92.96
2022-10-04T05:33:09.713Z,92.64
2022-10-04T05:36:26.345Z,92.71
2022-10-04T05:39:08.073Z,92.87
2022-10-04T05:41:49.544Z,92.36
2022-10-04T05:44:30.294Z,92.56
2022-10-04T05:47:02.329Z,92.55
2022-10-04T05:49:39.429Z,92.68
2022-10-04T05:52:16.396Z,92.69
2022-10-04T05:54:45.376Z,92.89
2022-10-04T05:57:31.123Z,92.52
2022-10-04T06:00:16.846Z,92.49
2022-10-04T06:03:17.329Z,92.86
2022-10-04T06:05:50.974Z,92.79
2022-10-04T06:08:40.510Z,92.75
2022-10-04T06:11:35.455Z,92.92
2022-10-04T06:14:22.354Z,92.87
2022-10-04T06:16:51.179Z,92.65
2022-10-04T06:19:34.865Z,92.70
2022-10-04T06:22:23.213Z,92.59
2022-10-04T06:24:55.470Z,92.49
2022-10-04T06:27:33.886Z,92.32
2022-10-04T06:30:13.132Z,92.43
2022-10-04T06:32:59.719Z,92.10
2022-10-04T06:36:00.116Z,92.26
2022-10-04T06:39:04.456Z,93.05
2022-10-04T06:41:47.362Z,92.44
2022-10-04T06:44:29.362Z,92.70
2022-10-04T06:47:00.823Z,92.58
2022-10-04T06:49:54.330Z,92.59
2022-10-04T06:52:48.208Z,92.40
2022-10-04T06:55:28.822Z,92.41
2022-10-04T06:58:31.209Z,92.64
2022-10-04T07:01:27.522Z,91.56
2022-10-04T07:04:49.972Z,92.40
2022-10-04T07:07:36.066Z,92.39
2022-10-04T07:10:11.780Z,92.19
2022-10-04T07:12:44.152Z,92.63
2022-10-04T07:15:45.894Z,92.55
2022-10-04T07:18:29.777Z,91.94
2022-10-04T07:21:12.311Z,92.06
2022-10-04T07:23:52.548Z,92.08
2022-10-04T07:26:30.657Z,92.04
2022-10-04T07:29:21.571Z,92.76
2022-10-04T07:32:06.453Z,92.33
2022-10-04T07:35:07.605Z,92.65
2022-10-04T07:37:50.447Z,93.12
2022-10-04T07:40:27.978Z,93.11
2022-10-04T07:43:08.612Z,93.34
2022-10-04T07:45:40.630Z,92.85
2022-10-04T07:48:23.977Z,92.95
2022-10-04T07:51:04.816Z,92.51
2022-10-04T07:53:47.438Z,93.01
2022-10-04T07:56:32.005Z,92.97
2022-10-04T07:59:12.653Z,93.27
2022-10-04T08:02:09.777Z,92.90
2022-10-04T08:04:57.113Z,93.32
2022-10-04T08:08:01.165Z,92.70
2022-10-04T08:10:38.242Z,92.60
2022-10-04T08:13:17.297Z,93.10
2022-10-04T08:15:46.867Z,92.69
2022-10-04T08:18:47.411Z,93.25
2022-10-04T08:21:24.234Z,92.78
2022-10-04T08:24:31.902Z,93.22
2022-10-04T08:27:18.469Z,92.58
2022-10-04T08:29:58.678Z,93.41
2022-10-04T08:32:51.717Z,92.88
2022-10-04T08:35:30.028Z,93.18
2022-10-04T08:38:21.837Z,93.20
2022-10-04T08:41:09.040Z,93.10
2022-10-04T08:43:56.655Z,93.01
2022-10-04T08:47:03.780Z,93.10
2022-10-04T08:49:52.883Z,92.84
2022-10-04T08:52:25.268Z,93.08
2022-10-04T08:55:29.535Z,93.53
2022-10-04T08:58:19.766Z,93.26
2022-10-04T09:01:19.031Z,93.18
2022-10-04T09:04:06.277Z,93.58
2022-10-04T09:06:53.780Z,93.30
2022-10-04T09:10:14.185Z,93.59
2022-10-04T09:13:19.655Z,93.64
2022-10-04T09:15:52.132Z,93.69
2022-10-04T09:18:38.923Z,93.29
2022-10-04T09:21:14.818Z,93.58
2022-10-04T09:24:11.481Z,93.73
2022-10-04T09:27:02.244Z,93.55
2022-10-04T09:29:55.280Z,94.03
2022-10-04T09:32:32.896Z,93.75
2022-10-04T09:35:38.762Z,93.88
2022-10-04T09:38:39.479Z,93.63
2022-10-04T09:41:33.090Z,93.13
2022-10-04T09:44:35.982Z,93.50
2022-10-04T09:47:49.809Z,93.48
2022-10-04T09:50:57.661Z,93.18
2022-10-04T09:53:45.680Z,93.27
2022-10-04T09:56:14.401Z,93.40
2022-10-04T09:58:59.160Z,93.47
2022-10-04T10:02:02.121Z,93.69
2022-10-04T10:04:48.049Z,93.27
2022-10-04T10:07:48.817Z,93.59
2022-10-04T10:10:59.630Z,93.47
2022-10-04T10:13:56.188Z,93.69
2022-10-04T10:16:46.068Z,93.52
2022-10-04T10:19:28.140Z,93.86
2022-10-04T10:22:07.756Z,93.91
2022-10-04T10:25:11.369Z,94.03
2022-10-04T10:27:53.507Z,93.87
2022-10-04T10:30:32.326Z,94.03
2022-10-04T10:33:26.834Z,94.02
2022-10-04T10:36:02.234Z,94.22
2022-10-04T10:38:51.768Z,94.14
2022-10-04T10:41:42.936Z,93.99
2022-10-04T10:44:35.484Z,93.81
2022-10-04T10:47:26.867Z,94.00
2022-10-04T10:50:28.199Z,94.36
2022-10-04T10:53:33.241Z,94.20
2022-10-04T10:56:04.915Z,93.73
2022-10-04T10:59:11.379Z,93.86
2022-10-04T11:01:55.818Z,93.95
2022-10-04T11:04:27.702Z,93.97
2022-10-04T11:07:21.103Z,94.03
2022-10-04T11:10:04.993Z,93.86
2022-10-04T11:13:08.093Z,94.36
2022-10-04T11:15:49.060Z,94.21
2022-10-04T11:18:47.067Z,94.05
2022-10-04T11:21:35.675Z,93.97
2022-10-04T11:24:33.348Z,94.31
2022-10-04T11:27:49.001Z,93.93
2022-10-04T11:30:28.843Z,94.05
2022-10-04T11:33:17.992Z,94.48
2022-10-04T11:35:56.113Z,94.06
2022-10-04T11:38:49.146Z,94.09
2022-10-04T11:41:50.233Z,93.95
2022-10-04T11:44:37.801Z,94.21
2022-10-04T11:50:45.834Z,94.22
2022-10-04T11:53:22.611Z,94.45
2022-10-04T11:55:59.030Z,94.37
2022-10-04T11:59:00.819Z,94.32
2022-10-04T12:02:00.729Z,94.08
2022-10-04T12:05:05.630Z,93.99
2022-10-04T12:07:57.788Z,94.31
2022-10-04T12:10:34.677Z,94.56
2022-10-04T12:13:09.318Z,94.08
2022-10-04T12:15:50.043Z,94.51
2022-10-04T12:18:37.223Z,94.25
2022-10-04T12:21:47.292Z,94.15
2022-10-04T12:24:39.742Z,94.25
2022-10-04T12:27:46.168Z,94.59
2022-10-04T12:30:27.160Z,94.53
2022-10-04T12:33:43.550Z,94.41
2022-10-04T12:36:14.217Z,94.58
2022-10-04T12:38:58.061Z,94.40
2022-10-04T12:41:48.520Z,94.59
2022-10-04T12:44:23.508Z,94.54
2022-10-04T12:47:07.271Z,94.33
2022-10-04T12:50:13.344Z,94.35
2022-10-04T12:53:07.618Z,94.62
2022-10-04T12:56:00.394Z,94.72
2022-10-04T12:59:05.387Z,94.74
2022-10-04T13:01:47.334Z,94.40
2022-10-04T13:04:48.419Z,94.40
2022-10-04T13:07:44.690Z,94.52
2022-10-04T13:10:39.116Z,94.62
2022-10-04T13:13:42.968Z,94.45
2022-10-04T13:20:13.470Z,94.18
2022-10-04T13:23:05.453Z,94.44
2022-10-04T13:26:01.312Z,94.39
2022-10-04T13:28:44.494Z,94.64
2022-10-04T13:31:50.295Z,94.61
2022-10-04T13:34:53.643Z,94.66
2022-10-04T13:37:30.180Z,94.11
2022-10-04T13:40:05.495Z,94.13
2022-10-04T13:42:57.524Z,94.44
2022-10-04T13:46:06.077Z,94.28
2022-10-04T13:48:51.659Z,94.54
2022-10-04T13:51:29.971Z,94.82
2022-10-04T13:54:52.835Z,94.43
2022-10-04T13:57:58.520Z,94.07
2022-10-04T14:00:57.194Z,94.37
2022-10-04T14:04:01.910Z,94.44
2022-10-04T14:07:07.451Z,94.26
2022-10-04T14:10:01.077Z,94.60
2022-10-04T14:12:51.993Z,94.67
2022-10-04T14:15:38.790Z,94.79
2022-10-04T14:18:27.424Z,94.40
2022-10-04T14:21:21.653Z,94.49
2022-10-04T14:23:54.440Z,94.73
2022-10-04T14:26:29.263Z,94.69
2022-10-04T14:29:14.847Z,94.33
2022-10-04T14:32:03.158Z,94.59
2022-10-04T14:35:02.375Z,94.36
2022-10-04T14:37:50.941Z,94.28
2022-10-04T14:40:38.713Z,94.38
2022-10-04T14:43:17.889Z,94.78
2022-10-04T14:46:11.512Z,94.27
2022-10-04T14:49:00.154Z,94.70
2022-10-04T14:51:37.099Z,94.77
2022-10-04T14:54:11.478Z,94.62
2022-10-04T14:57:04.899Z,94.42
2022-10-04T14:59:39.372Z,94.42
2022-10-04T15:02:20.864Z,94.20
2022-10-04T15:04:51.830Z,94.29
2022-10-04T15:07:47.572Z,94.53
2022-10-04T15:10:37.928Z,94.43
2022-10-04T15:13:24.493Z,94.33
2022-10-04T15:16:19.552Z,94.72
2022-10-04T15:18:58.161Z,94.35
2022-10-04T15:21:48.236Z,94.38
2022-10-04T15:24:17.014Z,94.59
2022-10-04T15:26:54.890Z,94.33
2022-10-04T15:29:32.582Z,94.81
2022-10-04T15:32:07.861Z,94.37
2022-10-04T15:34:46.233Z,94.50
2022-10-04T15:37:15.016Z,94.20
2022-10-04T15:40:04.419Z,94.33
2022-10-04T15:42:36.594Z,94.26
2022-10-04T15:45:20.849Z,94.32
2022-10-04T15:47:58.680Z,94.40
2022-10-04T15:50:33.547Z,94.59
2022-10-04T15:53:24.031Z,94.44
2022-10-04T15:56:09.290Z,94.19
2022-10-04T15:59:14.987Z,94.24
2022-10-04T16:01:59.676Z,94.55
2022-10-04T16:04:38.194Z,94.61
2022-10-04T16:07:42.802Z,94.22
2022-10-04T16:10:20.732Z,94.37
2022-10-04T16:13:05.941Z,94.59
2022-10-04T16:15:40.579Z,94.61
2022-10-04T16:18:33.644Z,94.53
2022-10-04T16:21:18.878Z,94.54
2022-10-04T16:23:48.759Z,94.23
2022-10-04T16:26:21.990Z,94.58
2022-10-04T16:29:15.306Z,94.30
2022-10-04T16:32:13.895Z,94.43
2022-10-04T16:35:08.958Z,94.37
2022-10-04T16:37:57.478Z,94.26
2022-10-04T16:40:44.820Z,94.25
2022-10-04T16:43:19.470Z,94.34
2022-10-04T16:46:23.679Z,94.56
2022-10-04T16:48:56.718Z,94.43
2022-10-04T16:51:25.710Z,94.33
2022-10-04T16:54:11.873Z,94.57
2022-10-04T16:57:01.979Z,94.27
2022-10-04T16:59:40.185Z,94.60
2022-10-04T17:02:35.602Z,94.36
2022-10-04T17:05:18.869Z,94.28
2022-10-04T17:08:15.483Z,94.20
2022-10-04T17:10:49.864Z,94.35
2022-10-04T17:13:24.566Z,94.53
2022-10-04T17:16:02.506Z,94.03
2022-10-04T17:19:08.495Z,94.63
2022-10-04T17:22:04.769Z,94.10
2022-10-04T17:24:48.713Z,94.59
2022-10-04T17:27:47.038Z,94.73
2022-10-04T17:30:22.601Z,94.47
2022-10-04T17:32:57.172Z,94.14
2022-10-04T17:36:04.181Z,94.44
2022-10-04T17:39:00.331Z,94.64
2022-10-04T17:42:06.593Z,94.40
2022-10-04T17:44:42.827Z,94.07
2022-10-04T17:48:04.936Z,94.14
2022-10-04T17:51:18.358Z,94.09
2022-10-04T17:54:11.252Z,94.13
2022-10-04T17:57:09.669Z,94.12
2022-10-04T18:00:14.975Z,94.30
2022-10-04T18:02:50.565Z,94.62
2022-10-04T18:05:29.190Z,94.50
2022-10-04T18:08:02.592Z,94.04
2022-10-04T18:10:48.608Z,94.45
2022-10-04T18:13:35.475Z,94.34
2022-10-04T18:16:20.001Z,94.65
2022-10-04T18:18:49.713Z,94.19
2022-10-04T18:21:28.559Z,94.67
2022-10-04T18:24:22.530Z,94.90
2022-10-04T18:27:06.050Z,94.29
2022-10-04T18:29:40.749Z,94.26
2022-10-04T18:32:27.867Z,94.02
2022-10-04T18:34:58.990Z,94.17
2022-10-04T18:37:35.319Z,94.21
2022-10-04T18:40:25.553Z,94.59
2022-10-04T18:42:58.273Z,94.39
2022-10-04T18:45:34.944Z,94.62
2022-10-04T18:48:15.713Z,94.26
2022-10-04T18:50:47.575Z,94.61
2022-10-04T18:53:34.937Z,94.58
2022-10-04T18:56:10.033Z,94.42
2022-10-04T18:59:22.346Z,94.37
2022-10-04T19:02:18.576Z,94.35
2022-10-04T19:05:02.658Z,94.41
2022-10-04T19:08:25.410Z,94.15
2022-10-04T19:11:03.733Z,94.55
2022-10-04T19:13:35.262Z,94.30
2022-10-04T19:16:16.271Z,94.81
2022-10-04T19:18:56.953Z,94.40
2022-10-04T19:21:56.223Z,94.13
2022-10-04T19:24:24.935Z,94.33
2022-10-04T19:27:22.246Z,94.21
2022-10-04T19:30:06.238Z,94.33
2022-10-04T19:33:02.515Z,94.34
2022-10-04T19:35:38.169Z,94.07
2022-10-04T19:38:12.966Z,94.61
2022-10-04T19:40:52.041Z,94.61
2022-10-04T19:43:38.609Z,94.22
2022-10-04T19:46:29.337Z,94.30
2022-10-04T19:48:58.500Z,94.48
2022-10-04T19:51:34.549Z,94.30
2022-10-04T19:54:16.053Z,94.23
2022-10-04T19:56:50.674Z,94.39
2022-10-04T19:59:36.422Z,94.45
2022-10-04T20:02:13.749Z,94.33
2022-10-04T20:04:44.253Z,94.29
2022-10-04T20:07:22.870Z,94.36
2022-10-04T20:09:55.293Z,94.69
2022-10-04T20:12:39.707Z,94.46
2022-10-04T20:15:25.200Z,94.52
2022-10-04T20:17:56.980Z,94.30
2022-10-04T20:20:43.858Z,94.36
2022-10-04T20:23:32.415Z,94.57
2022-10-04T20:26:02.429Z,94.42
2022-10-04T20:28:31.184Z,94.27
2022-10-04T20:31:07.302Z,94.10
2022-10-04T20:33:39.667Z,94.17
2022-10-04T20:36:13.706Z,94.36
2022-10-04T20:38:51.579Z,94.41
2022-10-04T20:41:29.690Z,94.06
2022-10-04T20:44:02.131Z,94.08
2022-10-04T20:46:40.737Z,94.12
2022-10-04T20:49:19.271Z,94.31
2022-10-04T20:51:50.325Z,94.13
2022-10-04T20:54:20.762Z,94.22
2022-10-04T20:56:51.978Z,94.40
2022-10-04T20:59:22.948Z,94.29
2022-10-04T21:02:05.925Z,94.34
2022-10-04T21:04:46.753Z,94.25
2022-10-04T21:07:22.166Z,94.22
2022-10-04T21:09:53.742Z,94.06
2022-10-04T21:12:35.343Z,94.08
2022-10-04T21:15:18.000Z,93.86
2022-10-04T21:18:09.036Z,94.16
2022-10-04T21:20:52.044Z,94.24
2022-10-04T21:23:34.050Z,94.59
2022-10-04T21:26:29.256Z,94.26
2022-10-04T21:28:59.563Z,93.91
2022-10-04T21:31:28.604Z,94.46
2022-10-04T21:33:57.417Z,94.04
2022-10-04T21:36:26.192Z,94.37
2022-10-04T21:38:54.911Z,93.98
2022-10-04T21:41:23.660Z,94.18
2022-10-04T21:43:52.352Z,94.04
2022-10-04T21:46:21.124Z,94.28
2022-10-04T21:48:50.020Z,94.40
2022-10-04T21:51:18.896Z,94.62
2022-10-04T21:53:47.877Z,94.33
2022-10-04T21:56:16.639Z,94.03
2022-10-04T21:58:45.401Z,94.04
2022-10-04T22:01:14.639Z,94.34
2022-10-04T22:03:43.607Z,94.33
2022-10-04T22:06:12.445Z,94.35
2022-10-04T22:08:43.514Z,94.17
2022-10-04T22:11:12.555Z,94.33
2022-10-04T22:13:41.632Z,94.16
2022-10-04T22:16:10.496Z,94.39
2022-10-04T22:18:39.280Z,94.12
2022-10-04T22:21:08.217Z,94.00
2022-10-04T22:23:39.980Z,94.02
2022-10-04T22:26:22.969Z,94.38
2022-10-04T22:28:54.587Z,94.47
2022-10-04T22:31:27.488Z,94.11
2022-10-04T22:33:57.238Z,94.25
2022-10-04T22:36:34.809Z,94.36
2022-10-04T22:39:09.707Z,94.36
2022-10-04T22:41:45.256Z,94.27
2022-10-04T22:44:22.401Z,93.90
2022-10-04T22:46:56.788Z,94.15
2022-10-04T22:49:32.098Z,94.17
2022-10-04T22:52:04.811Z,94.41
2022-10-04T22:54:36.180Z,94.11
2022-10-04T22:57:04.952Z,94.25
2022-10-04T22:59:42.684Z,93.69
2022-10-04T23:02:32.033Z,93.77
2022-10-04T23:05:20.496Z,94.02
2022-10-04T23:07:49.966Z,94.38
2022-10-04T23:10:20.556Z,93.83
2022-10-04T23:12:50.050Z,93.92
2022-10-04T23:15:20.894Z,93.95
2022-10-04T23:17:55.450Z,94.27
2022-10-04T23:20:24.597Z,94.33
2022-10-04T23:22:55.242Z,94.31
2022-10-04T23:25:31.236Z,94.34
2022-10-04T23:28:03.914Z,93.98
2022-10-04T23:30:32.855Z,94.48
2022-10-04T23:33:02.117Z,94.27
2022-10-04T23:35:33.512Z,94.06
2022-10-04T23:38:07.510Z,94.45
2022-10-04T23:40:36.252Z,94.39
2022-10-04T23:43:06.449Z,94.53
2022-10-04T23:45:37.107Z,94.58
2022-10-04T23:48:10.284Z,94.29
2022-10-04T23:50:40.823Z,94.56
2022-10-04T23:53:27.717Z,94.31
2022-10-04T23:55:58.232Z,94.19
2022-10-04T23:58:33.118Z,94.34
